Kezdőlap
METAR-TAF:

METAR-TAF

Repülőterek :

Szavíra, Marokkó

földrajzi szélesség: 31-31N, földrajzi hosszúság: 009-47W, magasság: 15 m

Jelenlegi meteorológiai megfigyelések

A jelentés 1 órával és 16 perccel ezelõtt készült, 17:00 UTC
Északi szél 16 kt, észak-északnyugati és észak-északkeleti között változik
Hőmérséklet 22°C
Páratartalom 53%
Légköri nyomás 1009 hPa
Látótávolság: 8000 m
Kevés felhő 2000 lábon

METAR: GMMI 211700Z 36016KT 330V030 8000 FEW020 22/12 Q1009 NOSIG

Idő: 19:16 (18:16 UTC)

Előrejelzés

A jelentés 1 órával és 16 perccel ezelõtt készült, 17:00 UTC
Az előrejelzés 21-én 18 óra UTC és 22-én 24 óra UTC között érvényes
Északi szél 16 kt
Látótávolság: 8000 m
Kevés felhő 2000 lábon
Valószínűség 30% :
22-én 12 óra UTC és 22-én 20 óra UTC között ideiglenes
Északi szél 18 kt széllökések: 28 kt

TAF: GMMI 211700Z 2118/2224 35016KT 8000 FEW020 PROB30 TEMPO 2212/2220 01018G28KT

Meteorológiai megfigyelések és előrejelzések több, mint 4000 repülőtéren (METAR és TAF jelentéseket).

A térképen piros és sárga pontok jelzik az elérhető meteorológiai állomásokat.

Mozgassa az egeret a pont fölött, hogy megjelenjen az állomás neve.

Azután kattintson az időjárási megfigyelések és előrejelzések megtekintéséhez.

A térkép megváltoztatása: kattintson a fekete keresztel jelölt zöld gombra ráközelítéshez, a vonallal jelölt zöld gombra távolításhoz, vagy a zöld nyilakra a szomszédos térképek eléréséhez.


METAR-TAF: